sensor_id;sensor_type;location;lat;lon;timestamp;pressure;altitude;pressure_sealevel;temperature;humidity
77639;BME280;66802;52.574;14.398;2023-03-17T00:00:39;102043.97;;;2.04;61.84
77639;BME280;66802;52.574;14.398;2023-03-17T00:03:06;102044.16;;;1.99;61.33
77639;BME280;66802;52.574;14.398;2023-03-17T00:05:35;102033.84;;;1.92;61.91
77639;BME280;66802;52.574;14.398;2023-03-17T00:08:09;102024.94;;;1.93;62.37
77639;BME280;66802;52.574;14.398;2023-03-17T00:10:36;102039.63;;;2.01;61.85
77639;BME280;66802;52.574;14.398;2023-03-17T00:13:02;102036.53;;;1.92;61.97
77639;BME280;66802;52.574;14.398;2023-03-17T00:15:28;102029.00;;;2.01;61.44
77639;BME280;66802;52.574;14.398;2023-03-17T00:17:55;102029.00;;;2.01;61.64
77639;BME280;66802;52.574;14.398;2023-03-17T00:20:26;102020.00;;;2.04;61.77
77639;BME280;66802;52.574;14.398;2023-03-17T00:22:54;102017.34;;;2.04;61.49
77639;BME280;66802;52.574;14.398;2023-03-17T00:25:27;102013.19;;;1.97;61.61
77639;BME280;66802;52.574;14.398;2023-03-17T00:27:55;102017.81;;;1.93;61.59
77639;BME280;66802;52.574;14.398;2023-03-17T00:30:22;102016.09;;;1.92;62.04
77639;BME280;66802;52.574;14.398;2023-03-17T00:32:50;102009.78;;;1.95;61.63
77639;BME280;66802;52.574;14.398;2023-03-17T00:35:22;102006.25;;;1.94;61.04
77639;BME280;66802;52.574;14.398;2023-03-17T00:37:50;102002.78;;;1.92;61.58
77639;BME280;66802;52.574;14.398;2023-03-17T00:40:24;101992.94;;;1.94;61.54
77639;BME280;66802;52.574;14.398;2023-03-17T00:42:52;101993.06;;;1.91;60.93
77639;BME280;66802;52.574;14.398;2023-03-17T00:45:19;101992.13;;;1.92;61.24
77639;BME280;66802;52.574;14.398;2023-03-17T00:47:46;101991.38;;;1.89;61.20
77639;BME280;66802;52.574;14.398;2023-03-17T00:50:15;101983.53;;;1.86;61.21
77639;BME280;66802;52.574;14.398;2023-03-17T00:52:41;101987.78;;;1.90;61.01
77639;BME280;66802;52.574;14.398;2023-03-17T00:55:08;101980.75;;;1.89;60.98
77639;BME280;66802;52.574;14.398;2023-03-17T00:57:36;101982.03;;;1.80;61.92
77639;BME280;66802;52.574;14.398;2023-03-17T01:00:02;101985.53;;;1.80;62.23
77639;BME280;66802;52.574;14.398;2023-03-17T05:00:59;101836.84;;;0.53;66.24
77639;BME280;66802;52.574;14.398;2023-03-17T05:03:26;101820.16;;;0.49;66.20
77639;BME280;66802;52.574;14.398;2023-03-17T05:05:55;101825.47;;;0.49;66.59
77639;BME280;66802;52.574;14.398;2023-03-17T05:08:21;101816.56;;;0.50;66.44
77639;BME280;66802;52.574;14.398;2023-03-17T05:10:47;101814.78;;;0.51;66.38
77639;BME280;66802;52.574;14.398;2023-03-17T05:13:13;101810.06;;;0.57;66.23
77639;BME280;66802;52.574;14.398;2023-03-17T05:15:39;101810.06;;;0.57;65.84
77639;BME280;66802;52.574;14.398;2023-03-17T05:18:04;101803.69;;;0.61;65.78
77639;BME280;66802;52.574;14.398;2023-03-17T05:20:30;101801.41;;;0.74;65.71
77639;BME280;66802;52.574;14.398;2023-03-17T05:22:56;101798.00;;;0.70;65.73
77639;BME280;66802;52.574;14.398;2023-03-17T05:25:21;101797.72;;;0.77;65.59
77639;BME280;66802;52.574;14.398;2023-03-17T05:27:47;101804.91;;;0.75;65.75
77639;BME280;66802;52.574;14.398;2023-03-17T05:30:13;101803.84;;;0.79;65.76
77639;BME280;66802;52.574;14.398;2023-03-17T05:32:38;101810.88;;;0.80;65.99
77639;BME280;66802;52.574;14.398;2023-03-17T05:35:04;101805.63;;;0.78;65.90
77639;BME280;66802;52.574;14.398;2023-03-17T05:37:30;101813.41;;;0.83;66.08
77639;BME280;66802;52.574;14.398;2023-03-17T05:39:56;101813.13;;;0.89;65.79
77639;BME280;66802;52.574;14.398;2023-03-17T05:42:22;101825.09;;;0.99;65.06
77639;BME280;66802;52.574;14.398;2023-03-17T05:44:47;101822.59;;;0.96;65.20
77639;BME280;66802;52.574;14.398;2023-03-17T05:47:13;101827.69;;;1.00;65.18
77639;BME280;66802;52.574;14.398;2023-03-17T05:49:38;101828.63;;;0.99;65.53
77639;BME280;66802;52.574;14.398;2023-03-17T05:52:04;101831.09;;;1.04;65.47
77639;BME280;66802;52.574;14.398;2023-03-17T05:54:30;101811.88;;;1.18;64.75
77639;BME280;66802;52.574;14.398;2023-03-17T05:56:55;101810.09;;;1.18;64.97
77639;BME280;66802;52.574;14.398;2023-03-17T05:59:21;101811.59;;;1.24;64.88
77639;BME280;66802;52.574;14.398;2023-03-17T06:01:47;101827.56;;;1.24;65.43
77639;BME280;66802;52.574;14.398;2023-03-17T06:04:13;101824.81;;;1.25;65.31
77639;BME280;66802;52.574;14.398;2023-03-17T06:06:39;101828.06;;;1.32;64.70
77639;BME280;66802;52.574;14.398;2023-03-17T06:09:04;101820.41;;;1.44;64.06
77639;BME280;66802;52.574;14.398;2023-03-17T06:11:30;101802.56;;;1.46;63.92
77639;BME280;66802;52.574;14.398;2023-03-17T06:13:56;101788.97;;;1.53;64.00
77639;BME280;66802;52.574;14.398;2023-03-17T06:16:21;101787.47;;;1.47;64.66
77639;BME280;66802;52.574;14.398;2023-03-17T06:18:47;101786.06;;;1.59;64.33
77639;BME280;66802;52.574;14.398;2023-03-17T06:21:13;101786.69;;;1.64;64.34
77639;BME280;66802;52.574;14.398;2023-03-17T06:23:38;101795.53;;;1.64;64.48
77639;BME280;66802;52.574;14.398;2023-03-17T06:26:05;101798.50;;;1.77;63.38
77639;BME280;66802;52.574;14.398;2023-03-17T06:28:31;101801.88;;;1.80;63.83
77639;BME280;66802;52.574;14.398;2023-03-17T06:30:57;101800.63;;;1.88;62.81
77639;BME280;66802;52.574;14.398;2023-03-17T06:33:24;101806.56;;;1.94;63.27
77639;BME280;66802;52.574;14.398;2023-03-17T06:35:49;101801.06;;;1.97;63.02
77639;BME280;66802;52.574;14.398;2023-03-17T06:38:16;101806.91;;;2.05;62.88
77639;BME280;66802;52.574;14.398;2023-03-17T06:40:42;101799.41;;;2.13;62.38
77639;BME280;66802;52.574;14.398;2023-03-17T06:43:08;101802.41;;;2.25;61.69
77639;BME280;66802;52.574;14.398;2023-03-17T06:45:33;101799.88;;;2.22;62.19
77639;BME280;66802;52.574;14.398;2023-03-17T06:47:59;101804.63;;;2.34;61.90
77639;BME280;66802;52.574;14.398;2023-03-17T06:50:24;101813.09;;;2.42;61.61
77639;BME280;66802;52.574;14.398;2023-03-17T06:52:50;101804.53;;;2.35;61.98
77639;BME280;66802;52.574;14.398;2023-03-17T06:55:16;101805.16;;;2.40;61.88
77639;BME280;66802;52.574;14.398;2023-03-17T06:57:42;101799.75;;;2.42;62.16
77639;BME280;66802;52.574;14.398;2023-03-17T07:00:09;101804.63;;;2.51;61.27
77639;BME280;66802;52.574;14.398;2023-03-17T07:02:36;101811.41;;;2.58;61.43
77639;BME280;66802;52.574;14.398;2023-03-17T07:05:02;101808.47;;;2.63;61.16
77639;BME280;66802;52.574;14.398;2023-03-17T07:07:29;101805.81;;;2.63;60.93
77639;BME280;66802;52.574;14.398;2023-03-17T07:09:54;101813.53;;;2.69;61.19
77639;BME280;66802;52.574;14.398;2023-03-17T07:12:20;101814.22;;;2.72;60.73
77639;BME280;66802;52.574;14.398;2023-03-17T07:14:46;101813.97;;;2.77;60.87
77639;BME280;66802;52.574;14.398;2023-03-17T07:17:13;101799.47;;;2.82;60.92
77639;BME280;66802;52.574;14.398;2023-03-17T07:19:40;101809.03;;;2.86;60.51
77639;BME280;66802;52.574;14.398;2023-03-17T07:22:08;101807.63;;;2.97;60.19
77639;BME280;66802;52.574;14.398;2023-03-17T07:24:35;101820.81;;;3.00;59.93
77639;BME280;66802;52.574;14.398;2023-03-17T07:27:00;101813.81;;;2.97;60.20
77639;BME280;66802;52.574;14.398;2023-03-17T07:29:26;101816.09;;;3.05;60.08
77639;BME280;66802;52.574;14.398;2023-03-17T07:31:53;101806.56;;;3.16;59.86
77639;BME280;66802;52.574;14.398;2023-03-17T07:34:19;101820.84;;;3.15;59.72
77639;BME280;66802;52.574;14.398;2023-03-17T07:36:44;101809.81;;;3.23;59.81
77639;BME280;66802;52.574;14.398;2023-03-17T07:39:10;101801.59;;;3.26;59.84
77639;BME280;66802;52.574;14.398;2023-03-17T07:41:37;101791.72;;;3.28;59.50
77639;BME280;66802;52.574;14.398;2023-03-17T07:44:02;101781.06;;;3.28;59.59
77639;BME280;66802;52.574;14.398;2023-03-17T07:46:28;101763.88;;;3.34;59.50
77639;BME280;66802;52.574;14.398;2023-03-17T07:48:54;101761.94;;;3.36;60.43
77639;BME280;66802;52.574;14.398;2023-03-17T07:51:21;101758.81;;;3.45;59.60
77639;BME280;66802;52.574;14.398;2023-03-17T07:53:49;101764.16;;;3.45;59.70
77639;BME280;66802;52.574;14.398;2023-03-17T07:56:16;101770.44;;;3.59;58.90
77639;BME280;66802;52.574;14.398;2023-03-17T07:58:42;101755.47;;;3.73;58.98
77639;BME280;66802;52.574;14.398;2023-03-17T08:01:08;101744.50;;;3.93;58.56
77639;BME280;66802;52.574;14.398;2023-03-17T08:03:34;101729.94;;;4.14;58.27
77639;BME280;66802;52.574;14.398;2023-03-17T08:06:01;101726.38;;;4.29;56.71
77639;BME280;66802;52.574;14.398;2023-03-17T08:08:28;101720.41;;;4.40;55.93
77639;BME280;66802;52.574;14.398;2023-03-17T08:11:00;101703.72;;;4.51;54.87
77639;BME280;66802;52.574;14.398;2023-03-17T08:13:29;101701.72;;;4.54;55.52
77639;BME280;66802;52.574;14.398;2023-03-17T08:15:55;101692.16;;;4.50;54.88
77639;BME280;66802;52.574;14.398;2023-03-17T08:18:21;101699.50;;;4.47;55.65
77639;BME280;66802;52.574;14.398;2023-03-17T08:20:48;101697.78;;;4.46;56.52
77639;BME280;66802;52.574;14.398;2023-03-17T08:23:13;101690.34;;;4.51;56.84
77639;BME280;66802;52.574;14.398;2023-03-17T08:25:39;101688.94;;;4.59;56.61
77639;BME280;66802;52.574;14.398;2023-03-17T08:28:05;101685.41;;;4.73;55.83
77639;BME280;66802;52.574;14.398;2023-03-17T08:30:30;101677.50;;;4.86;55.83
77639;BME280;66802;52.574;14.398;2023-03-17T08:32:56;101687.63;;;5.09;55.50
77639;BME280;66802;52.574;14.398;2023-03-17T08:35:22;101689.13;;;5.41;54.09
77639;BME280;66802;52.574;14.398;2023-03-17T08:37:47;101680.53;;;5.50;53.62
77639;BME280;66802;52.574;14.398;2023-03-17T08:40:15;101685.44;;;5.71;54.34
77639;BME280;66802;52.574;14.398;2023-03-17T08:42:46;101696.50;;;5.93;52.16
77639;BME280;66802;52.574;14.398;2023-03-17T08:45:14;101710.44;;;5.98;52.20
77639;BME280;66802;52.574;14.398;2023-03-17T08:47:40;101706.34;;;6.19;52.44
77639;BME280;66802;52.574;14.398;2023-03-17T08:50:13;101699.50;;;6.28;51.28
77639;BME280;66802;52.574;14.398;2023-03-17T08:52:40;101706.19;;;6.35;50.22
77639;BME280;66802;52.574;14.398;2023-03-17T08:55:06;101701.28;;;6.54;50.92
77639;BME280;66802;52.574;14.398;2023-03-17T08:57:34;101696.03;;;6.66;49.77
77639;BME280;66802;52.574;14.398;2023-03-17T09:00:00;101689.16;;;6.74;50.30
77639;BME280;66802;52.574;14.398;2023-03-17T09:02:26;101680.38;;;6.97;50.56
77639;BME280;66802;52.574;14.398;2023-03-17T09:04:52;101675.00;;;7.10;49.45
77639;BME280;66802;52.574;14.398;2023-03-17T09:07:19;101686.16;;;7.17;48.53
77639;BME280;66802;52.574;14.398;2023-03-17T09:09:45;101694.50;;;7.25;49.10
77639;BME280;66802;52.574;14.398;2023-03-17T09:12:13;101676.91;;;7.33;48.77
77639;BME280;66802;52.574;14.398;2023-03-17T09:14:38;101686.78;;;7.33;47.72
77639;BME280;66802;52.574;14.398;2023-03-17T09:17:05;101702.44;;;7.39;46.84
77639;BME280;66802;52.574;14.398;2023-03-17T09:19:32;101707.16;;;7.36;48.13
77639;BME280;66802;52.574;14.398;2023-03-17T09:21:58;101707.16;;;7.48;49.31
77639;BME280;66802;52.574;14.398;2023-03-17T09:24:24;101689.09;;;7.50;48.13
77639;BME280;66802;52.574;14.398;2023-03-17T09:26:49;101689.97;;;7.51;48.35
77639;BME280;66802;52.574;14.398;2023-03-17T09:29:15;101700.31;;;7.68;47.96
77639;BME280;66802;52.574;14.398;2023-03-17T09:31:40;101694.22;;;7.66;47.79
77639;BME280;66802;52.574;14.398;2023-03-17T09:34:07;101685.88;;;7.82;48.06
77639;BME280;66802;52.574;14.398;2023-03-17T09:36:33;101680.56;;;7.93;47.94
77639;BME280;66802;52.574;14.398;2023-03-17T09:39:00;101677.44;;;7.99;47.17
77639;BME280;66802;52.574;14.398;2023-03-17T09:41:49;101665.03;;;8.09;46.48
77639;BME280;66802;52.574;14.398;2023-03-17T09:50:09;101656.47;;;8.39;46.05
77639;BME280;66802;52.574;14.398;2023-03-17T09:52:37;101642.41;;;8.47;45.33
77639;BME280;66802;52.574;14.398;2023-03-17T09:55:06;101653.72;;;8.63;45.63
77639;BME280;66802;52.574;14.398;2023-03-17T09:57:39;101658.63;;;8.69;45.43
77639;BME280;66802;52.574;14.398;2023-03-17T10:00:17;101655.81;;;8.82;45.95
77639;BME280;66802;52.574;14.398;2023-03-17T10:02:44;101650.09;;;8.86;45.49
77639;BME280;66802;52.574;14.398;2023-03-17T10:08:12;101630.84;;;8.79;46.26
77639;BME280;66802;52.574;14.398;2023-03-17T10:16:17;101613.13;;;8.99;45.02
77639;BME280;66802;52.574;14.398;2023-03-17T10:18:50;101609.44;;;9.00;44.52
77639;BME280;66802;52.574;14.398;2023-03-17T10:21:21;101613.72;;;9.03;45.01
77639;BME280;66802;52.574;14.398;2023-03-17T10:23:52;101609.22;;;9.03;45.43
77639;BME280;66802;52.574;14.398;2023-03-17T10:26:45;101600.59;;;9.21;45.21
77639;BME280;66802;52.574;14.398;2023-03-17T10:29:18;101602.44;;;9.31;44.79
77639;BME280;66802;52.574;14.398;2023-03-17T10:31:47;101597.53;;;9.36;44.54
77639;BME280;66802;52.574;14.398;2023-03-17T10:34:16;101607.22;;;9.39;44.05
77639;BME280;66802;52.574;14.398;2023-03-17T10:36:48;101594.59;;;9.39;44.39
77639;BME280;66802;52.574;14.398;2023-03-17T10:39:17;101596.44;;;9.39;43.69
77639;BME280;66802;52.574;14.398;2023-03-17T10:47:01;101607.72;;;9.76;44.05
77639;BME280;66802;52.574;14.398;2023-03-17T10:49:34;101603.28;;;9.75;42.93
77639;BME280;66802;52.574;14.398;2023-03-17T10:52:07;101612.09;;;9.88;42.83
77639;BME280;66802;52.574;14.398;2023-03-17T10:54:47;101594.31;;;9.85;42.35
77639;BME280;66802;52.574;14.398;2023-03-17T10:57:14;101604.06;;;9.98;44.05
77639;BME280;66802;52.574;14.398;2023-03-17T10:59:51;101603.66;;;10.13;42.67
77639;BME280;66802;52.574;14.398;2023-03-17T11:02:29;101609.28;;;10.10;42.45
77639;BME280;66802;52.574;14.398;2023-03-17T11:05:14;101608.69;;;10.07;41.80
77639;BME280;66802;52.574;14.398;2023-03-17T11:07:42;101601.81;;;10.14;42.14
77639;BME280;66802;52.574;14.398;2023-03-17T11:10:22;101595.72;;;10.33;42.71
77639;BME280;66802;52.574;14.398;2023-03-17T11:12:58;101595.34;;;10.37;41.48
77639;BME280;66802;52.574;14.398;2023-03-17T11:15:31;101587.22;;;10.37;41.96
77639;BME280;66802;52.574;14.398;2023-03-17T11:18:06;101584.66;;;10.36;42.24
77639;BME280;66802;52.574;14.398;2023-03-17T11:20:52;101581.59;;;10.50;42.71
77639;BME280;66802;52.574;14.398;2023-03-17T11:23:42;101581.53;;;10.61;40.70
77639;BME280;66802;52.574;14.398;2023-03-17T11:29:29;101568.94;;;10.71;41.38
77639;BME280;66802;52.574;14.398;2023-03-17T11:32:46;101564.16;;;10.84;40.78
77639;BME280;66802;52.574;14.398;2023-03-17T11:40:34;101560.84;;;11.02;40.84
77639;BME280;66802;52.574;14.398;2023-03-17T11:43:17;101561.09;;;10.98;41.93
77639;BME280;66802;52.574;14.398;2023-03-17T11:46:06;101561.25;;;11.07;41.30
77639;BME280;66802;52.574;14.398;2023-03-17T11:57:00;101560.91;;;11.40;40.78
77639;BME280;66802;52.574;14.398;2023-03-17T11:59:50;101552.09;;;11.48;40.45
77639;BME280;66802;52.574;14.398;2023-03-17T12:02:59;101535.19;;;11.55;40.30
77639;BME280;66802;52.574;14.398;2023-03-17T12:05:27;101534.03;;;11.58;40.53
77639;BME280;66802;52.574;14.398;2023-03-17T12:08:19;101527.34;;;11.62;40.75
77639;BME280;66802;52.574;14.398;2023-03-17T12:10:53;101533.22;;;11.67;39.74
77639;BME280;66802;52.574;14.398;2023-03-17T12:13:27;101534.63;;;11.71;39.46
77639;BME280;66802;52.574;14.398;2023-03-17T12:16:22;101517.66;;;11.59;38.66
77639;BME280;66802;52.574;14.398;2023-03-17T12:19:23;101518.53;;;11.60;39.11
77639;BME280;66802;52.574;14.398;2023-03-17T12:22:01;101517.13;;;11.65;40.06
77639;BME280;66802;52.574;14.398;2023-03-17T12:24:52;101516.00;;;11.78;39.08
77639;BME280;66802;52.574;14.398;2023-03-17T12:27:27;101500.31;;;11.91;40.21
77639;BME280;66802;52.574;14.398;2023-03-17T12:29:59;101507.88;;;11.97;38.78
77639;BME280;66802;52.574;14.398;2023-03-17T12:32:52;101508.13;;;12.13;38.00
77639;BME280;66802;52.574;14.398;2023-03-17T12:35:26;101507.22;;;12.22;37.52
77639;BME280;66802;52.574;14.398;2023-03-17T12:37:54;101503.28;;;12.17;37.63
77639;BME280;66802;52.574;14.398;2023-03-17T12:40:39;101497.53;;;12.29;37.77
77639;BME280;66802;52.574;14.398;2023-03-17T12:54:50;101490.44;;;12.65;38.07
77639;BME280;66802;52.574;14.398;2023-03-17T12:57:41;101482.13;;;12.67;37.23
77639;BME280;66802;52.574;14.398;2023-03-17T13:02:49;101483.69;;;12.69;37.31
77639;BME280;66802;52.574;14.398;2023-03-17T13:05:27;101483.28;;;12.74;37.30
77639;BME280;66802;52.574;14.398;2023-03-17T13:08:00;101479.66;;;12.83;36.61
77639;BME280;66802;52.574;14.398;2023-03-17T13:23:39;101461.47;;;12.93;36.79
77639;BME280;66802;52.574;14.398;2023-03-17T13:26:06;101464.47;;;12.90;37.61
77639;BME280;66802;52.574;14.398;2023-03-17T13:33:54;101459.25;;;13.06;36.41
77639;BME280;66802;52.574;14.398;2023-03-17T13:47:39;101426.72;;;13.06;37.71
77639;BME280;66802;52.574;14.398;2023-03-17T13:53:02;101434.03;;;13.24;37.17
77639;BME280;66802;52.574;14.398;2023-03-17T13:55:39;101431.97;;;13.18;36.68
77639;BME280;66802;52.574;14.398;2023-03-17T14:00:33;101433.38;;;13.12;36.70
77639;BME280;66802;52.574;14.398;2023-03-17T14:06:23;101426.41;;;13.09;36.43
77639;BME280;66802;52.574;14.398;2023-03-17T14:18:49;101403.72;;;13.10;36.45
77639;BME280;66802;52.574;14.398;2023-03-17T14:21:32;101401.00;;;13.10;37.13
77639;BME280;66802;52.574;14.398;2023-03-17T14:24:00;101390.59;;;13.15;36.39
77639;BME280;66802;52.574;14.398;2023-03-17T14:26:30;101379.00;;;13.13;36.87
77639;BME280;66802;52.574;14.398;2023-03-17T14:29:01;101379.09;;;13.22;37.69
77639;BME280;66802;52.574;14.398;2023-03-17T14:31:29;101373.84;;;13.20;37.68
77639;BME280;66802;52.574;14.398;2023-03-17T14:33:59;101368.13;;;13.23;37.73
77639;BME280;66802;52.574;14.398;2023-03-17T14:36:27;101360.69;;;13.25;37.50
77639;BME280;66802;52.574;14.398;2023-03-17T14:38:55;101365.66;;;13.30;37.37
77639;BME280;66802;52.574;14.398;2023-03-17T14:41:24;101366.97;;;13.26;37.52
77639;BME280;66802;52.574;14.398;2023-03-17T14:43:55;101368.25;;;13.22;37.88
77639;BME280;66802;52.574;14.398;2023-03-17T14:46:39;101356.91;;;13.18;37.72
77639;BME280;66802;52.574;14.398;2023-03-17T14:53:04;101352.19;;;13.10;38.19
77639;BME280;66802;52.574;14.398;2023-03-17T14:59:05;101341.59;;;12.99;38.52
77639;BME280;66802;52.574;14.398;2023-03-17T15:04:20;101347.34;;;12.96;38.10
77639;BME280;66802;52.574;14.398;2023-03-17T15:06:50;101337.41;;;12.87;38.96
77639;BME280;66802;52.574;14.398;2023-03-17T15:12:36;101341.69;;;12.90;38.66
77639;BME280;66802;52.574;14.398;2023-03-17T15:18:24;101337.66;;;12.94;39.33
77639;BME280;66802;52.574;14.398;2023-03-17T15:20:53;101350.81;;;12.89;39.28
77639;BME280;66802;52.574;14.398;2023-03-17T15:23:28;101353.53;;;12.89;39.89
77639;BME280;66802;52.574;14.398;2023-03-17T15:26:04;101343.53;;;12.89;38.90
77639;BME280;66802;52.574;14.398;2023-03-17T15:28:34;101350.66;;;12.90;39.01
77639;BME280;66802;52.574;14.398;2023-03-17T15:31:13;101361.50;;;12.90;39.16
77639;BME280;66802;52.574;14.398;2023-03-17T15:33:50;101357.22;;;12.88;38.41
77639;BME280;66802;52.574;14.398;2023-03-17T15:36:39;101350.97;;;12.87;40.03
77639;BME280;66802;52.574;14.398;2023-03-17T15:39:18;101353.00;;;12.85;39.53
77639;BME280;66802;52.574;14.398;2023-03-17T15:41:49;101354.59;;;12.78;39.69
77639;BME280;66802;52.574;14.398;2023-03-17T15:44:15;101360.88;;;12.78;38.98
77639;BME280;66802;52.574;14.398;2023-03-17T15:46:50;101360.34;;;12.75;39.47
77639;BME280;66802;52.574;14.398;2023-03-17T15:49:18;101352.81;;;12.69;39.18
77639;BME280;66802;52.574;14.398;2023-03-17T15:51:53;101351.19;;;12.58;39.50
77639;BME280;66802;52.574;14.398;2023-03-17T15:54:39;101353.88;;;12.58;39.71
77639;BME280;66802;52.574;14.398;2023-03-17T15:57:04;101350.78;;;12.53;38.95
77639;BME280;66802;52.574;14.398;2023-03-17T15:59:30;101338.69;;;12.48;39.98
77639;BME280;66802;52.574;14.398;2023-03-17T16:01:56;101348.59;;;12.39;39.25
77639;BME280;66802;52.574;14.398;2023-03-17T16:04:22;101342.75;;;12.34;39.96
77639;BME280;66802;52.574;14.398;2023-03-17T16:06:47;101338.81;;;12.28;39.67
77639;BME280;66802;52.574;14.398;2023-03-17T16:09:14;101346.00;;;12.20;39.93
77639;BME280;66802;52.574;14.398;2023-03-17T16:11:41;101328.91;;;12.19;39.85
77639;BME280;66802;52.574;14.398;2023-03-17T16:14:08;101330.09;;;12.07;39.67
77639;BME280;66802;52.574;14.398;2023-03-17T16:16:40;101333.94;;;12.04;40.12
77639;BME280;66802;52.574;14.398;2023-03-17T16:19:16;101326.28;;;12.00;40.19
77639;BME280;66802;52.574;14.398;2023-03-17T16:21:43;101327.47;;;11.88;40.33
77639;BME280;66802;52.574;14.398;2023-03-17T16:24:16;101334.19;;;11.84;40.39
77639;BME280;66802;52.574;14.398;2023-03-17T16:26:42;101328.91;;;11.82;39.85
77639;BME280;66802;52.574;14.398;2023-03-17T16:29:12;101333.31;;;11.74;40.90
77639;BME280;66802;52.574;14.398;2023-03-17T16:31:39;101334.63;;;11.60;41.26
77639;BME280;66802;52.574;14.398;2023-03-17T16:34:17;101329.97;;;11.52;41.64
77639;BME280;66802;52.574;14.398;2023-03-17T16:36:43;101331.00;;;11.32;42.77
77639;BME280;66802;52.574;14.398;2023-03-17T16:39:18;101328.59;;;11.19;43.22
77639;BME280;66802;52.574;14.398;2023-03-17T16:41:49;101332.72;;;11.23;43.01
77639;BME280;66802;52.574;14.398;2023-03-17T16:44:19;101328.88;;;11.07;43.42
77639;BME280;66802;52.574;14.398;2023-03-17T16:46:46;101318.81;;;10.99;43.60
77639;BME280;66802;52.574;14.398;2023-03-17T16:49:17;101325.78;;;10.92;43.91
77639;BME280;66802;52.574;14.398;2023-03-17T16:51:44;101326.47;;;10.84;43.94
77639;BME280;66802;52.574;14.398;2023-03-17T16:54:18;101318.22;;;10.76;43.89
77639;BME280;66802;52.574;14.398;2023-03-17T16:56:44;101331.28;;;10.61;44.51
77639;BME280;66802;52.574;14.398;2023-03-17T16:59:19;101323.03;;;10.53;44.30
77639;BME280;66802;52.574;14.398;2023-03-17T17:01:45;101322.44;;;10.50;44.34
77639;BME280;66802;52.574;14.398;2023-03-17T17:04:40;101321.03;;;10.46;44.77
77639;BME280;66802;52.574;14.398;2023-03-17T17:07:05;101324.00;;;10.43;44.60
77639;BME280;66802;52.574;14.398;2023-03-17T17:09:41;101327.25;;;10.27;45.24
77639;BME280;66802;52.574;14.398;2023-03-17T17:12:11;101326.22;;;10.18;45.34
77639;BME280;66802;52.574;14.398;2023-03-17T17:14:37;101334.97;;;10.11;45.28
77639;BME280;66802;52.574;14.398;2023-03-17T17:17:03;101344.47;;;10.05;45.76
77639;BME280;66802;52.574;14.398;2023-03-17T17:19:29;101348.56;;;10.00;46.01
77639;BME280;66802;52.574;14.398;2023-03-17T17:21:55;101348.66;;;9.88;45.53
77639;BME280;66802;52.574;14.398;2023-03-17T17:24:20;101343.69;;;9.84;46.26
77639;BME280;66802;52.574;14.398;2023-03-17T17:26:46;101348.34;;;9.82;46.01
77639;BME280;66802;52.574;14.398;2023-03-17T17:29:12;101357.50;;;9.70;46.68
77639;BME280;66802;52.574;14.398;2023-03-17T17:31:37;101364.94;;;9.57;47.93
77639;BME280;66802;52.574;14.398;2023-03-17T17:34:03;101360.66;;;9.54;48.19
77639;BME280;66802;52.574;14.398;2023-03-17T17:36:29;101359.44;;;9.37;49.20
77639;BME280;66802;52.574;14.398;2023-03-17T17:38:55;101355.09;;;9.25;48.82
77639;BME280;66802;52.574;14.398;2023-03-17T17:41:21;101356.31;;;9.21;48.52
77639;BME280;66802;52.574;14.398;2023-03-17T17:43:47;101353.31;;;9.14;48.44
77639;BME280;66802;52.574;14.398;2023-03-17T17:46:17;101350.13;;;9.09;49.37
77639;BME280;66802;52.574;14.398;2023-03-17T17:48:44;101345.03;;;9.06;48.77
77639;BME280;66802;52.574;14.398;2023-03-17T17:51:10;101348.59;;;9.07;48.61
77639;BME280;66802;52.574;14.398;2023-03-17T17:53:35;101343.25;;;8.96;48.56
77639;BME280;66802;52.574;14.398;2023-03-17T17:56:01;101346.91;;;8.95;48.54
77639;BME280;66802;52.574;14.398;2023-03-17T17:58:27;101342.03;;;8.89;48.66
77639;BME280;66802;52.574;14.398;2023-03-17T18:01:09;101347.41;;;8.89;48.35
77639;BME280;66802;52.574;14.398;2023-03-17T18:03:37;101345.38;;;8.81;48.90
77639;BME280;66802;52.574;14.398;2023-03-17T18:06:06;101345.75;;;8.76;48.88
77639;BME280;66802;52.574;14.398;2023-03-17T18:08:32;101340.03;;;8.70;48.99
77639;BME280;66802;52.574;14.398;2023-03-17T18:10:58;101339.78;;;8.73;49.00
77639;BME280;66802;52.574;14.398;2023-03-17T18:13:24;101342.13;;;8.66;48.58
77639;BME280;66802;52.574;14.398;2023-03-17T18:15:50;101344.59;;;8.58;48.85
77639;BME280;66802;52.574;14.398;2023-03-17T18:18:16;101342.53;;;8.51;49.08
77639;BME280;66802;52.574;14.398;2023-03-17T18:20:41;101342.16;;;8.55;49.13
77639;BME280;66802;52.574;14.398;2023-03-17T18:23:07;101338.03;;;8.51;49.45
77639;BME280;66802;52.574;14.398;2023-03-17T18:25:33;101343.41;;;8.51;49.37
77639;BME280;66802;52.574;14.398;2023-03-17T18:27:59;101351.72;;;8.48;49.32
77639;BME280;66802;52.574;14.398;2023-03-17T18:30:28;101332.78;;;8.38;49.81
77639;BME280;66802;52.574;14.398;2023-03-17T18:33:01;101343.91;;;8.34;50.17
77639;BME280;66802;52.574;14.398;2023-03-17T18:35:28;101345.59;;;8.24;50.33
77639;BME280;66802;52.574;14.398;2023-03-17T18:37:55;101335.59;;;8.15;50.23
77639;BME280;66802;52.574;14.398;2023-03-17T18:40:22;101341.59;;;8.07;50.57
77639;BME280;66802;52.574;14.398;2023-03-17T18:42:48;101327.06;;;8.10;49.98
77639;BME280;66802;52.574;14.398;2023-03-17T18:45:15;101323.25;;;8.12;50.24
77639;BME280;66802;52.574;14.398;2023-03-17T18:47:40;101330.34;;;8.13;50.13
77639;BME280;66802;52.574;14.398;2023-03-17T18:50:12;101324.00;;;7.92;51.18
77639;BME280;66802;52.574;14.398;2023-03-17T18:52:39;101321.44;;;8.01;50.98